createdAt,value
2022-09-14T00:00:42.010Z,11.30
2022-09-14T00:06:11.124Z,12.70
2022-09-14T00:11:15.149Z,13.60
2022-09-14T00:16:23.927Z,10.90
2022-09-14T00:21:27.998Z,12.10
2022-09-14T00:26:30.681Z,14.50
2022-09-14T00:31:37.042Z,12.50
2022-09-14T00:41:48.330Z,10.70
2022-09-14T00:46:54.499Z,12.10
2022-09-14T00:52:09.069Z,13.90
2022-09-14T00:57:12.396Z,13.40
2022-09-14T01:02:15.537Z,14.30
2022-09-14T01:07:39.002Z,10.60
2022-09-14T01:13:19.787Z,14.10
2022-09-14T01:18:36.503Z,13.40
2022-09-14T01:24:06.379Z,13.40
2022-09-14T01:29:26.811Z,16.80
2022-09-14T01:34:35.554Z,10.70
2022-09-14T01:39:43.299Z,15.10
2022-09-14T01:44:50.312Z,23.20
2022-09-14T01:49:58.496Z,24.50
2022-09-14T01:55:07.619Z,31.60
2022-09-14T02:00:16.412Z,31.90
2022-09-14T02:05:32.338Z,37.70
2022-09-14T02:10:35.521Z,40.10
2022-09-14T02:15:39.374Z,31.70
2022-09-14T02:21:16.987Z,27.00
2022-09-14T02:26:22.058Z,31.70
2022-09-14T02:32:02.146Z,25.20
2022-09-14T02:37:07.480Z,14.90
2022-09-14T02:42:37.314Z,18.90
2022-09-14T02:48:04.794Z,15.00
2022-09-14T02:53:17.587Z,15.90
2022-09-14T02:58:20.247Z,17.20
2022-09-14T03:03:23.030Z,19.40
2022-09-14T03:08:27.272Z,16.60
2022-09-14T03:13:30.166Z,19.00
2022-09-14T03:18:34.122Z,15.50
2022-09-14T03:23:38.962Z,13.60
2022-09-14T03:28:42.676Z,12.20
2022-09-14T03:33:45.357Z,10.00
2022-09-14T03:38:50.330Z,14.80
2022-09-14T03:43:53.487Z,15.90
2022-09-14T03:48:56.225Z,11.30
2022-09-14T03:53:58.924Z,14.40
2022-09-14T03:59:01.724Z,15.60
2022-09-14T04:04:04.530Z,13.10
2022-09-14T04:09:07.184Z,21.30
2022-09-14T04:14:09.923Z,16.40
2022-09-14T04:19:13.242Z,16.20
2022-09-14T04:24:17.032Z,12.50
2022-09-14T04:29:20.067Z,21.50
2022-09-14T04:34:22.866Z,29.80
2022-09-14T04:39:26.537Z,16.30
2022-09-14T04:44:29.506Z,17.50
2022-09-14T04:49:32.313Z,19.80
2022-09-14T04:54:34.994Z,19.50
2022-09-14T04:59:37.692Z,22.10
2022-09-14T05:04:40.393Z,18.00
2022-09-14T05:09:43.806Z,22.10
2022-09-14T05:14:46.769Z,24.10
2022-09-14T05:19:49.395Z,24.00
2022-09-14T05:24:52.108Z,27.20
2022-09-14T05:29:54.760Z,33.90
2022-09-14T05:34:57.658Z,30.20
2022-09-14T05:40:00.427Z,19.80
2022-09-14T05:45:03.531Z,31.10
2022-09-14T05:50:12.375Z,21.60
2022-09-14T05:55:17.517Z,18.10
2022-09-14T06:00:21.845Z,18.70
2022-09-14T06:05:28.652Z,14.50
2022-09-14T06:10:32.606Z,12.80
2022-09-14T06:15:36.038Z,14.20
2022-09-14T06:20:39.224Z,10.80
2022-09-14T06:25:42.060Z,13.10
2022-09-14T06:30:47.898Z,13.50
2022-09-14T06:36:01.852Z,11.20
2022-09-14T06:41:08.232Z,10.90
2022-09-14T06:46:14.947Z,10.40
2022-09-14T06:51:33.348Z,10.60
2022-09-14T06:56:40.797Z,8.00
2022-09-14T07:01:51.315Z,7.60
2022-09-14T07:06:54.169Z,7.80
2022-09-14T07:11:56.822Z,8.70
2022-09-14T07:16:59.733Z,9.90
2022-09-14T07:22:02.595Z,8.70
2022-09-14T07:27:05.799Z,8.40
2022-09-14T07:32:08.868Z,7.10
2022-09-14T07:37:11.586Z,5.30
2022-09-14T07:42:14.508Z,9.10
2022-09-14T07:47:17.555Z,5.50
2022-09-14T07:52:20.505Z,8.00
2022-09-14T07:57:39.384Z,4.20
2022-09-14T08:02:52.689Z,5.60
2022-09-14T08:07:56.418Z,4.70
2022-09-14T08:12:59.157Z,4.50
2022-09-14T08:18:02.391Z,4.10
2022-09-14T08:23:05.036Z,5.30
2022-09-14T08:28:07.735Z,3.90
2022-09-14T08:33:10.387Z,3.90
2022-09-14T08:38:13.593Z,3.00
2022-09-14T08:43:16.327Z,4.80
2022-09-14T08:48:52.855Z,3.80
2022-09-14T08:53:58.033Z,3.50
2022-09-14T08:59:28.486Z,5.00
2022-09-14T09:05:00.359Z,3.50
2022-09-14T09:10:05.659Z,3.70
2022-09-14T09:15:37.826Z,3.10
2022-09-14T09:20:52.221Z,4.30
2022-09-14T09:26:07.180Z,3.50
2022-09-14T09:31:14.829Z,5.10
2022-09-14T09:36:20.184Z,6.80
2022-09-14T09:41:37.723Z,5.30
2022-09-14T09:46:46.054Z,4.50
2022-09-14T09:51:49.849Z,3.20
2022-09-14T09:57:02.140Z,3.60
2022-09-14T10:02:26.741Z,2.40
2022-09-14T10:07:32.491Z,4.00
2022-09-14T10:12:37.649Z,2.30
2022-09-14T10:17:40.463Z,1.90
2022-09-14T10:22:43.827Z,4.80
2022-09-14T10:27:52.902Z,4.90
2022-09-14T10:33:05.829Z,3.60
2022-09-14T10:38:29.962Z,3.70
2022-09-14T10:44:03.537Z,3.80
2022-09-14T10:49:58.852Z,3.10
2022-09-14T10:56:07.529Z,1.90
2022-09-14T11:01:28.468Z,2.90
2022-09-14T11:06:49.610Z,2.70
2022-09-14T11:12:10.882Z,2.90
2022-09-14T11:17:31.628Z,3.50
2022-09-14T11:23:07.531Z,4.90
2022-09-14T11:28:15.448Z,4.80
2022-09-14T11:33:47.639Z,5.90
2022-09-14T11:38:57.791Z,3.70
2022-09-14T11:44:07.043Z,4.40
2022-09-14T11:49:22.153Z,5.30
2022-09-14T11:54:25.253Z,4.70
2022-09-14T11:59:51.158Z,2.80
2022-09-14T12:05:04.696Z,2.50
2022-09-14T12:10:13.548Z,3.90
2022-09-14T12:15:23.246Z,3.00
2022-09-14T12:20:38.130Z,2.10
2022-09-14T12:26:06.908Z,3.50
2022-09-14T12:31:31.998Z,1.50
2022-09-14T12:36:37.657Z,2.90
2022-09-14T12:41:40.432Z,4.20
2022-09-14T12:46:43.336Z,2.00
2022-09-14T12:51:48.965Z,1.70
2022-09-14T12:57:10.132Z,2.00
2022-09-14T13:02:21.701Z,1.60
2022-09-14T13:07:32.033Z,1.70
2022-09-14T13:12:41.496Z,4.20
2022-09-14T13:18:01.181Z,3.10
2022-09-14T13:23:19.173Z,2.30
2022-09-14T13:28:26.349Z,2.00
2022-09-14T13:33:30.094Z,4.50
2022-09-14T13:38:38.193Z,4.10
2022-09-14T13:43:42.857Z,1.70
2022-09-14T13:48:45.671Z,2.00
2022-09-14T13:53:50.948Z,3.30
2022-09-14T13:59:18.661Z,3.00
2022-09-14T14:04:30.136Z,4.30
2022-09-14T14:09:51.065Z,2.70
2022-09-14T14:14:59.813Z,3.50
2022-09-14T14:20:34.702Z,1.50
2022-09-14T14:25:47.707Z,2.10
2022-09-14T14:30:51.161Z,1.90
2022-09-14T14:35:56.503Z,3.60
2022-09-14T14:40:59.344Z,7.10
2022-09-14T14:46:03.283Z,4.70
2022-09-14T14:51:06.833Z,6.00
2022-09-14T14:56:14.005Z,4.90
2022-09-14T15:01:17.025Z,6.50
2022-09-14T15:06:23.968Z,7.60
2022-09-14T15:11:26.747Z,6.30
2022-09-14T15:16:29.492Z,8.00
2022-09-14T15:21:32.400Z,12.30
2022-09-14T15:26:35.785Z,9.80
2022-09-14T15:31:39.002Z,8.40
2022-09-14T15:36:52.077Z,8.10
2022-09-14T15:41:56.169Z,7.00
2022-09-14T15:46:59.323Z,8.50
2022-09-14T15:52:02.802Z,10.90
2022-09-14T15:57:08.138Z,4.40
2022-09-14T16:02:12.536Z,7.20
2022-09-14T16:07:15.530Z,8.10
2022-09-14T16:12:18.146Z,8.20
2022-09-14T16:17:20.806Z,5.90
2022-09-14T16:22:24.108Z,8.80
2022-09-14T16:27:27.103Z,11.60
2022-09-14T16:32:30.118Z,13.00
2022-09-14T16:37:33.022Z,9.20
2022-09-14T16:42:35.639Z,6.10
2022-09-14T16:47:38.418Z,11.30
2022-09-14T16:52:41.120Z,6.10
2022-09-14T16:57:43.815Z,6.80
2022-09-14T17:02:52.046Z,10.70
2022-09-14T17:07:55.050Z,7.50
2022-09-14T17:12:57.748Z,9.00
2022-09-14T17:18:00.373Z,9.40
2022-09-14T17:23:03.145Z,10.60
2022-09-14T17:28:05.844Z,24.30
2022-09-14T17:33:09.098Z,16.50
2022-09-14T17:38:11.756Z,15.90
2022-09-14T17:43:15.392Z,27.20
2022-09-14T17:48:18.382Z,35.20
2022-09-14T17:53:21.678Z,37.70
2022-09-14T17:58:24.390Z,33.10
2022-09-14T18:03:27.140Z,22.80
2022-09-14T18:08:30.226Z,30.10
2022-09-14T18:13:33.273Z,24.00
2022-09-14T18:18:36.235Z,28.20
2022-09-14T18:23:39.010Z,29.50
2022-09-14T18:28:44.338Z,30.50
2022-09-14T18:33:50.310Z,32.50
2022-09-14T18:38:53.761Z,25.00
2022-09-14T18:43:57.307Z,17.50
2022-09-14T18:49:01.554Z,13.90
2022-09-14T18:54:07.282Z,12.60
2022-09-14T18:59:13.162Z,14.70
2022-09-14T19:04:16.003Z,19.70
2022-09-14T19:09:18.759Z,21.10
2022-09-14T19:14:21.679Z,21.60
2022-09-14T19:19:26.346Z,19.90
2022-09-14T19:24:30.953Z,19.30
2022-09-14T19:29:33.750Z,21.00
2022-09-14T19:34:38.405Z,20.40
2022-09-14T19:39:42.428Z,16.40
2022-09-14T19:44:45.125Z,18.10
2022-09-14T19:49:48.233Z,18.10
2022-09-14T19:54:50.931Z,17.60
2022-09-14T19:59:54.141Z,19.70
2022-09-14T20:04:56.843Z,17.90
2022-09-14T20:09:59.538Z,16.60
2022-09-14T20:15:02.194Z,17.60
2022-09-14T20:20:05.841Z,12.40
2022-09-14T20:25:09.344Z,14.40
2022-09-14T20:30:12.697Z,15.20
2022-09-14T20:35:15.981Z,12.50
2022-09-14T20:40:18.718Z,12.20
2022-09-14T20:45:21.579Z,10.70
2022-09-14T20:50:25.017Z,12.00
2022-09-14T20:55:27.733Z,9.60
2022-09-14T21:00:30.413Z,12.30
2022-09-14T21:05:33.078Z,16.10
2022-09-14T21:10:38.884Z,13.00
2022-09-14T21:15:41.819Z,13.20
2022-09-14T21:20:44.794Z,10.90
2022-09-14T21:25:55.691Z,10.60
2022-09-14T21:31:20.968Z,13.60
2022-09-14T21:36:29.902Z,14.00
2022-09-14T21:41:33.318Z,11.00
2022-09-14T21:46:36.160Z,10.90
2022-09-14T21:51:38.868Z,11.00
2022-09-14T21:56:44.041Z,12.40
2022-09-14T22:01:47.965Z,11.20
2022-09-14T22:06:53.753Z,9.70
2022-09-14T22:11:57.318Z,13.10
2022-09-14T22:16:59.948Z,12.40
2022-09-14T22:22:03.875Z,10.80
2022-09-14T22:27:11.102Z,11.00
2022-09-14T22:32:14.594Z,16.30
2022-09-14T22:37:17.440Z,11.90
2022-09-14T22:42:20.193Z,10.90
2022-09-14T22:47:22.948Z,11.60
2022-09-14T22:52:25.579Z,13.30
2022-09-14T22:57:28.197Z,12.60
2022-09-14T23:02:30.950Z,13.70
2022-09-14T23:07:33.728Z,12.40
2022-09-14T23:12:36.500Z,14.60
2022-09-14T23:17:39.186Z,15.30
2022-09-14T23:22:41.885Z,10.80
2022-09-14T23:27:44.521Z,9.60
2022-09-14T23:32:47.216Z,12.40
2022-09-14T23:37:50.533Z,12.60
2022-09-14T23:42:53.831Z,11.00
2022-09-14T23:47:56.922Z,13.70
2022-09-14T23:52:59.627Z,13.30
2022-09-14T23:58:02.813Z,13.00
